Time;durP1;ratioP1;P1;durP2;ratioP2;P2;SDS_P1;SDS_P2;PMS_P1;PMS_P2;Temp;Humidity;BMP_temperature;BMP_pressure;BME280_temperature;BME280_humidity;BME280_pressure;Samples;Min_cycle;Max_cycle;Signal;HPM_P1;HPM_P2
2022/01/27 00:02:38;;;;;;;49.22;18.98;;;;;;;;;;5095759;28;20120;-70
2022/01/27 00:05:16;;;;;;;42.70;19.58;;;;;;;;;;5096068;28;20043;-73
2022/01/27 00:07:43;;;;;;;50.65;18.98;;;;;;;;;;5117391;28;20058;-76
2022/01/27 00:12:42;;;;;;;44.40;20.55;;;;;;;;;;5120150;28;20046;-69
2022/01/27 00:15:14;;;;;;;42.53;18.67;;;;;;;;;;5112870;28;20070;-71
2022/01/27 00:17:47;;;;;;;44.28;19.85;;;;;;;;;;5100751;28;20047;-71
2022/01/27 00:20:13;;;;;;;40.80;19.27;;;;;;;;;;5121656;28;20047;-68
2022/01/27 00:22:40;;;;;;;43.90;19.95;;;;;;;;;;5091480;28;20079;-64
2022/01/27 00:25:06;;;;;;;;;;;;;;;;;;5116344;28;20402;-70
2022/01/27 00:27:35;;;;;;;43.15;19.67;;;;;;;;;;5121633;28;19923;-67
2022/01/27 00:30:03;;;;;;;44.63;20.70;;;;;;;;;;5105760;28;20039;-81
2022/01/27 00:32:30;;;;;;;41.30;19.90;;;;;;;;;;5131734;28;20047;-72
2022/01/27 00:34:58;;;;;;;43.70;19.33;;;;;;;;;;5111414;28;20167;-71
2022/01/27 00:37:24;;;;;;;41.45;18.00;;;;;;;;;;5115902;28;20047;-79
2022/01/27 00:39:50;;;;;;;45.75;19.15;;;;;;;;;;5114686;28;20043;-81
2022/01/27 00:42:16;;;;;;;43.38;20.67;;;;;;;;;;5125082;28;20055;-75
2022/01/27 00:44:42;;;;;;;47.50;21.02;;;;;;;;;;5114348;28;20055;-80
2022/01/27 00:47:08;;;;;;;42.00;20.10;;;;;;;;;;5120548;28;20415;-69
2022/01/27 00:49:36;;;;;;;41.17;19.27;;;;;;;;;;5116797;27;20051;-73
2022/01/27 00:52:03;;;;;;;44.10;19.70;;;;;;;;;;5129944;27;20117;-72
2022/01/27 00:54:30;;;;;;;47.95;21.25;;;;;;;;;;5115973;27;20479;-73
2022/01/27 01:05:38;;;;;;;43.13;21.08;;;;;;;;;;5126843;27;20131;-71
2022/01/27 01:07:49;;;;;;;44.45;20.50;;;;;;;;;;5131163;27;20043;-78
2022/01/27 01:15:48;;;;;;;42.05;19.92;;;;;;;;;;5117373;27;20047;-72
2022/01/27 01:31:44;;;;;;;46.15;21.65;;;;;;;;;;5101601;28;20079;-82
2022/01/27 01:34:14;;;;;;;43.47;20.80;;;;;;;;;;5117254;27;20051;-78
2022/01/27 01:39:20;;;;;;;48.38;22.48;;;;;;;;;;5134484;27;20057;-65
2022/01/27 01:41:46;;;;;;;;;;;;;;;;;;5123729;27;20459;-66
2022/01/27 01:44:12;;;;;;;50.75;23.33;;;;;;;;;;5115669;27;19969;-70
2022/01/27 01:46:38;;;;;;;46.97;22.88;;;;;;;;;;5129184;27;20047;-71
2022/01/27 01:49:05;;;;;;;51.72;23.25;;;;;;;;;;5114706;28;20089;-75
2022/01/27 01:51:32;;;;;;;48.15;23.60;;;;;;;;;;5123882;27;20048;-79
2022/01/27 01:53:58;;;;;;;49.65;24.50;;;;;;;;;;5114534;28;20083;-73
2022/01/27 01:56:25;;;;;;;46.83;23.88;;;;;;;;;;5104015;28;20501;-73
2022/01/27 01:58:51;;;;;;;46.42;23.65;;;;;;;;;;5119057;27;20395;-79
2022/01/27 02:01:18;;;;;;;40.38;20.70;;;;;;;;;;5119826;27;20038;-76
2022/01/27 02:03:44;;;;;;;46.42;25.00;;;;;;;;;;5123053;27;20055;-71
2022/01/27 02:06:18;;;;;;;46.55;23.42;;;;;;;;;;5116025;27;20403;-82
2022/01/27 02:09:06;;;;;;;50.72;24.05;;;;;;;;;;5115542;27;20980;-69
2022/01/27 02:19:52;;;;;;;49.65;25.38;;;;;;;;;;5104236;27;20078;-79
2022/01/27 02:22:19;;;;;;;51.63;23.45;;;;;;;;;;5115082;27;20040;-76
2022/01/27 02:24:44;;;;;;;;;;;;;;;;;;5124471;27;20042;-68
2022/01/27 02:27:10;;;;;;;49.95;24.67;;;;;;;;;;5110067;27;19942;-75
2022/01/27 02:29:38;;;;;;;44.83;24.35;;;;;;;;;;5114838;27;20054;-68
2022/01/27 02:32:04;;;;;;;53.25;25.67;;;;;;;;;;5116144;27;20078;-72
2022/01/27 02:34:30;;;;;;;51.70;26.42;;;;;;;;;;5118608;27;20047;-68
2022/01/27 02:36:56;;;;;;;51.05;24.40;;;;;;;;;;5091966;28;20127;-71
2022/01/27 02:39:23;;;;;;;58.38;27.75;;;;;;;;;;5114795;27;20066;-70
2022/01/27 02:41:49;;;;;;;;;;;;;;;;;;5126261;27;20058;-68
2022/01/27 02:44:21;;;;;;;56.80;26.50;;;;;;;;;;5116086;27;19919;-73
2022/01/27 02:46:50;;;;;;;52.80;26.00;;;;;;;;;;5127057;27;20039;-79
2022/01/27 02:49:16;;;;;;;55.30;26.58;;;;;;;;;;5114022;27;20039;-74
2022/01/27 02:51:42;;;;;;;48.42;24.38;;;;;;;;;;5112091;27;20054;-69
2022/01/27 02:54:08;;;;;;;47.13;23.60;;;;;;;;;;5133465;27;20131;-74
2022/01/27 02:56:38;;;;;;;52.47;25.15;;;;;;;;;;5097093;28;20403;-67
2022/01/27 02:59:04;;;;;;;48.30;24.65;;;;;;;;;;5101511;27;20039;-73
2022/01/27 03:01:30;;;;;;;52.03;26.13;;;;;;;;;;5131936;27;20071;-69
2022/01/27 03:03:56;;;;;;;52.13;26.88;;;;;;;;;;5114421;27;20392;-73
2022/01/27 03:06:22;;;;;;;48.53;25.17;;;;;;;;;;5133506;27;20054;-68
2022/01/27 03:08:48;;;;;;;53.60;27.23;;;;;;;;;;5115465;27;20083;-69
2022/01/27 03:11:17;;;;;;;59.28;28.30;;;;;;;;;;5132963;27;20039;-65
2022/01/27 03:13:43;;;;;;;46.30;23.88;;;;;;;;;;5131864;27;20130;-73
2022/01/27 03:16:09;;;;;;;;;;;;;;;;;;5133904;27;20107;-74
2022/01/27 03:18:36;;;;;;;54.65;28.10;;;;;;;;;;5120418;27;20383;-66
2022/01/27 03:21:02;;;;;;;56.55;26.30;;;;;;;;;;5117731;27;20039;-68
2022/01/27 03:23:28;;;;;;;55.78;28.63;;;;;;;;;;5125562;27;20462;-66
2022/01/27 03:25:54;;;;;;;56.08;28.30;;;;;;;;;;5113921;27;20046;-68
2022/01/27 03:28:24;;;;;;;52.80;26.92;;;;;;;;;;5128098;27;20530;-70
2022/01/27 03:30:50;;;;;;;53.33;24.40;;;;;;;;;;5111793;28;20040;-68
2022/01/27 03:33:17;;;;;;;53.20;27.75;;;;;;;;;;5119577;27;20047;-68
2022/01/27 03:35:43;;;;;;;51.13;26.23;;;;;;;;;;5118161;27;20039;-74
2022/01/27 03:38:09;;;;;;;50.03;25.80;;;;;;;;;;5069642;28;20482;-68
2022/01/27 03:40:35;;;;;;;55.42;26.20;;;;;;;;;;5073556;28;20491;-69
2022/01/27 03:43:04;;;;;;;54.33;22.75;;;;;;;;;;5098632;28;20039;-73
2022/01/27 03:45:30;;;;;;;52.95;26.17;;;;;;;;;;5113021;28;20051;-70
2022/01/27 03:47:56;;;;;;;52.15;22.13;;;;;;;;;;5116588;28;20035;-72
2022/01/27 03:50:22;;;;;;;49.38;26.10;;;;;;;;;;5117286;28;20047;-79
2022/01/27 03:52:48;;;;;;;57.55;25.80;;;;;;;;;;5115582;28;20115;-68
2022/01/27 03:55:14;;;;;;;59.40;25.33;;;;;;;;;;5111630;28;20475;-71
2022/01/27 03:57:40;;;;;;;56.33;26.52;;;;;;;;;;5085385;28;20499;-73
2022/01/27 04:00:07;;;;;;;52.63;24.95;;;;;;;;;;5111808;28;20044;-69
2022/01/27 04:02:36;;;;;;;44.75;22.15;;;;;;;;;;5083023;28;20043;-72
2022/01/27 04:05:02;;;;;;;56.28;25.25;;;;;;;;;;5118819;28;20052;-70
2022/01/27 04:07:28;;;;;;;47.40;23.45;;;;;;;;;;5116295;28;20036;-71
2022/01/27 04:09:54;;;;;;;45.85;22.88;;;;;;;;;;5128893;28;20242;-68
2022/01/27 04:12:20;;;;;;;59.40;25.17;;;;;;;;;;5114463;28;20419;-73
2022/01/27 04:14:47;;;;;;;54.85;25.15;;;;;;;;;;5122971;28;20047;-67
2022/01/27 04:17:13;;;;;;;53.05;25.02;;;;;;;;;;5113868;28;20036;-67
2022/01/27 04:19:39;;;;;;;57.42;25.33;;;;;;;;;;5126439;28;20043;-73
2022/01/27 04:22:05;;;;;;;48.80;21.45;;;;;;;;;;5113283;28;20479;-68
2022/01/27 04:24:31;;;;;;;48.40;24.55;;;;;;;;;;5132169;27;20042;-70
2022/01/27 04:27:07;;;;;;;54.67;24.42;;;;;;;;;;5118057;27;20043;-74
2022/01/27 04:29:37;;;;;;;53.67;23.00;;;;;;;;;;5116074;27;20071;-70
2022/01/27 04:32:08;;;;;;;60.33;24.88;;;;;;;;;;5114337;28;20118;-69
2022/01/27 04:34:36;;;;;;;46.60;23.08;;;;;;;;;;5115056;27;20051;-85
2022/01/27 04:37:02;;;;;;;54.72;24.67;;;;;;;;;;5121854;27;20071;-84
2022/01/27 04:39:37;;;;;;;57.15;25.08;;;;;;;;;;5116409;27;20050;-68
2022/01/27 04:42:10;;;;;;;66.25;26.15;;;;;;;;;;5095376;28;20058;-74
2022/01/27 04:44:45;;;;;;;58.80;25.02;;;;;;;;;;5133482;27;20096;-70
2022/01/27 04:47:18;;;;;;;56.35;21.38;;;;;;;;;;5134123;27;20055;-70
2022/01/27 04:49:45;;;;;;;59.72;24.58;;;;;;;;;;5135924;27;20047;-77
2022/01/27 04:52:13;;;;;;;56.05;25.10;;;;;;;;;;5122717;27;20039;-72
2022/01/27 04:54:56;;;;;;;53.55;24.20;;;;;;;;;;5120841;27;20051;-73
2022/01/27 04:57:23;;;;;;;49.10;23.02;;;;;;;;;;5116908;27;20054;-71
2022/01/27 04:59:49;;;;;;;64.35;24.83;;;;;;;;;;5117394;27;20051;-71
2022/01/27 05:02:30;;;;;;;53.35;19.98;;;;;;;;;;5115315;28;20044;-69
2022/01/27 05:04:57;;;;;;;70.20;24.10;;;;;;;;;;5128742;27;20050;-76
2022/01/27 05:07:23;;;;;;;53.05;23.95;;;;;;;;;;5111936;27;20039;-70
2022/01/27 05:09:57;;;;;;;59.92;25.95;;;;;;;;;;5126089;27;20050;-76
2022/01/27 05:15:17;;;;;;;58.92;24.98;;;;;;;;;;5118371;27;20077;-77
2022/01/27 05:17:43;;;;;;;65.85;28.10;;;;;;;;;;5117102;27;20052;-75
2022/01/27 05:20:10;;;;;;;67.82;26.40;;;;;;;;;;5127004;27;20047;-75
2022/01/27 05:22:36;;;;;;;;;;;;;;;;;;5129278;27;20039;-76
2022/01/27 05:25:02;;;;;;;61.72;26.23;;;;;;;;;;5115964;27;20434;-79
2022/01/27 05:27:28;;;;;;;51.50;23.70;;;;;;;;;;5096740;28;20109;-79
2022/01/27 05:29:54;;;;;;;72.38;26.90;;;;;;;;;;5126676;27;20043;-74
2022/01/27 05:32:20;;;;;;;72.63;28.42;;;;;;;;;;5135014;27;20084;-72
2022/01/27 05:34:46;;;;;;;;;;;;;;;;;;5112463;27;20073;-74
2022/01/27 05:37:12;;;;;;;55.58;22.88;;;;;;;;;;5134197;27;19955;-79
2022/01/27 05:39:38;;;;;;;63.40;26.50;;;;;;;;;;5113213;28;20066;-79
2022/01/27 05:42:05;;;;;;;68.10;28.42;;;;;;;;;;5133173;27;20112;-75
2022/01/27 05:44:31;;;;;;;71.28;25.67;;;;;;;;;;5130446;27;20552;-80
2022/01/27 05:46:57;;;;;;;73.10;26.55;;;;;;;;;;5106157;27;20086;-74
2022/01/27 05:49:23;;;;;;;74.90;26.65;;;;;;;;;;5130039;27;20431;-73
2022/01/27 05:51:50;;;;;;;64.10;26.75;;;;;;;;;;5117719;27;20031;-78
2022/01/27 05:54:16;;;;;;;66.68;26.55;;;;;;;;;;5109659;28;20046;-77
2022/01/27 05:56:42;;;;;;;72.78;27.67;;;;;;;;;;5115183;27;20138;-75
2022/01/27 05:59:08;;;;;;;62.30;26.60;;;;;;;;;;5117316;27;20399;-77
2022/01/27 06:01:34;;;;;;;64.97;26.52;;;;;;;;;;5120739;27;20475;-73
2022/01/27 06:04:00;;;;;;;64.82;26.58;;;;;;;;;;5110371;27;20092;-82
2022/01/27 06:06:26;;;;;;;68.72;25.75;;;;;;;;;;5129358;27;20391;-74
2022/01/27 06:08:52;;;;;;;66.60;27.35;;;;;;;;;;5127338;27;20043;-80
2022/01/27 06:11:18;;;;;;;66.15;24.33;;;;;;;;;;5127901;27;20048;-74
2022/01/27 06:13:44;;;;;;;63.08;24.63;;;;;;;;;;5125916;27;20038;-70
2022/01/27 06:16:12;;;;;;;64.22;25.98;;;;;;;;;;5103796;27;20223;-69
2022/01/27 06:18:38;;;;;;;69.63;24.88;;;;;;;;;;5127916;27;20047;-67
2022/01/27 06:21:06;;;;;;;61.10;23.35;;;;;;;;;;5133477;27;20043;-70
2022/01/27 06:23:32;;;;;;;77.55;26.13;;;;;;;;;;5129910;27;20062;-75
2022/01/27 06:25:59;;;;;;;69.45;27.50;;;;;;;;;;5125763;27;20040;-73
2022/01/27 06:28:25;;;;;;;67.63;25.63;;;;;;;;;;5114493;27;20054;-76
2022/01/27 06:30:51;;;;;;;61.35;24.77;;;;;;;;;;5098471;27;20039;-73
2022/01/27 06:33:18;;;;;;;62.50;25.77;;;;;;;;;;5132039;27;20047;-75
2022/01/27 06:35:44;;;;;;;70.22;26.80;;;;;;;;;;5116996;27;20104;-73
2022/01/27 06:38:10;;;;;;;65.72;24.23;;;;;;;;;;5120512;27;20138;-72
2022/01/27 06:40:36;;;;;;;57.92;23.92;;;;;;;;;;5090682;28;20044;-71
2022/01/27 06:43:02;;;;;;;57.95;23.55;;;;;;;;;;5106284;27;20094;-69
2022/01/27 06:45:29;;;;;;;69.32;24.02;;;;;;;;;;5095957;28;20407;-77
2022/01/27 06:47:55;;;;;;;55.67;21.88;;;;;;;;;;5113400;28;20115;-72
2022/01/27 06:50:21;;;;;;;62.25;25.48;;;;;;;;;;5112529;27;20040;-71
2022/01/27 06:52:47;;;;;;;74.93;23.58;;;;;;;;;;5124183;27;20043;-70
2022/01/27 06:55:15;;;;;;;63.03;24.00;;;;;;;;;;5115323;27;20080;-75
2022/01/27 06:57:41;;;;;;;63.38;23.98;;;;;;;;;;5133041;27;20117;-70
2022/01/27 07:00:08;;;;;;;65.18;24.73;;;;;;;;;;5129340;27;20039;-72
2022/01/27 07:02:35;;;;;;;37.47;16.40;;;;;;;;;;5133356;27;20042;-71
2022/01/27 07:05:02;;;;;;;57.55;24.27;;;;;;;;;;5133794;27;20047;-75
2022/01/27 07:07:28;;;;;;;57.47;23.98;;;;;;;;;;5133763;27;20458;-72
2022/01/27 07:09:54;;;;;;;58.90;22.55;;;;;;;;;;5130631;27;20047;-81
2022/01/27 07:12:20;;;;;;;59.92;21.83;;;;;;;;;;5111085;27;20482;-76
2022/01/27 07:14:46;;;;;;;56.88;21.95;;;;;;;;;;5108092;27;20085;-82
2022/01/27 07:17:14;;;;;;;55.85;22.20;;;;;;;;;;5109649;27;20035;-76
2022/01/27 07:19:41;;;;;;;57.38;22.48;;;;;;;;;;5126631;27;20091;-76
2022/01/27 07:22:07;;;;;;;69.32;23.27;;;;;;;;;;5112571;28;20039;-71
2022/01/27 07:24:33;;;;;;;65.82;21.60;;;;;;;;;;5131150;27;20088;-73
2022/01/27 07:26:59;;;;;;;57.20;20.52;;;;;;;;;;5131484;27;20042;-72
2022/01/27 07:29:25;;;;;;;66.90;23.02;;;;;;;;;;5131607;27;20047;-70
2022/01/27 07:31:51;;;;;;;48.90;20.35;;;;;;;;;;5118250;27;20224;-78
2022/01/27 07:34:17;;;;;;;54.13;21.35;;;;;;;;;;5130751;27;20051;-72
2022/01/27 07:36:44;;;;;;;55.05;20.13;;;;;;;;;;5114837;28;20066;-75
2022/01/27 07:39:14;;;;;;;;;;;;;;;;;;5132366;27;20038;-70
2022/01/27 07:41:42;;;;;;;59.33;20.75;;;;;;;;;;5130798;27;20379;-72
2022/01/27 07:44:08;;;;;;;60.88;22.40;;;;;;;;;;5112200;28;20047;-71
2022/01/27 07:46:35;;;;;;;56.17;22.58;;;;;;;;;;5130786;28;20050;-72
2022/01/27 07:49:01;;;;;;;63.75;22.83;;;;;;;;;;5132633;28;20483;-70
2022/01/27 07:51:27;;;;;;;50.90;20.45;;;;;;;;;;5131178;28;20039;-69
2022/01/27 07:53:53;;;;;;;51.28;21.20;;;;;;;;;;5130829;28;20065;-68
2022/01/27 07:56:19;;;;;;;54.08;18.83;;;;;;;;;;5130986;28;20039;-69
2022/01/27 07:58:45;;;;;;;59.28;20.67;;;;;;;;;;5110375;27;20075;-68
2022/01/27 08:01:11;;;;;;;60.28;20.80;;;;;;;;;;5134428;27;20039;-68
2022/01/27 08:03:38;;;;;;;58.13;20.75;;;;;;;;;;5135345;27;20043;-67
2022/01/27 08:06:05;;;;;;;57.70;18.50;;;;;;;;;;5134137;27;20487;-67
2022/01/27 08:08:31;;;;;;;53.47;18.83;;;;;;;;;;5104482;28;20044;-73
2022/01/27 08:10:58;;;;;;;68.72;18.80;;;;;;;;;;5132339;27;20070;-74
2022/01/27 08:13:24;;;;;;;53.88;18.90;;;;;;;;;;5135384;27;20058;-73
2022/01/27 08:15:50;;;;;;;56.95;17.98;;;;;;;;;;5133211;27;20070;-68
2022/01/27 08:18:16;;;;;;;57.28;17.77;;;;;;;;;;5115516;27;20487;-71
2022/01/27 08:20:43;;;;;;;52.55;17.98;;;;;;;;;;5134651;27;20507;-71
2022/01/27 08:23:09;;;;;;;44.55;15.45;;;;;;;;;;5127679;27;20066;-68
2022/01/27 08:25:36;;;;;;;52.80;16.70;;;;;;;;;;5130823;27;20126;-69
2022/01/27 08:28:06;;;;;;;49.92;17.08;;;;;;;;;;5134313;27;20047;-68
2022/01/27 08:30:40;;;;;;;42.95;14.05;;;;;;;;;;5134868;27;20449;-67
2022/01/27 08:33:13;;;;;;;53.47;15.07;;;;;;;;;;5127772;27;20070;-66
2022/01/27 08:35:39;;;;;;;48.50;14.43;;;;;;;;;;5135097;27;20122;-66
2022/01/27 08:38:06;;;;;;;48.25;15.10;;;;;;;;;;5110852;28;20410;-70
2022/01/27 08:40:32;;;;;;;54.80;16.50;;;;;;;;;;5109003;28;20047;-64
2022/01/27 08:42:58;;;;;;;49.40;14.65;;;;;;;;;;5119125;27;20079;-67
2022/01/27 08:45:25;;;;;;;53.38;14.57;;;;;;;;;;5108470;27;20054;-68
2022/01/27 08:47:55;;;;;;;39.25;13.40;;;;;;;;;;5112446;27;20043;-69
2022/01/27 08:50:22;;;;;;;46.10;13.27;;;;;;;;;;5111500;27;20082;-67
2022/01/27 08:52:48;;;;;;;42.83;14.68;;;;;;;;;;5099722;28;20467;-67
2022/01/27 08:55:16;;;;;;;51.00;12.65;;;;;;;;;;5113736;27;20502;-66
2022/01/27 08:57:42;;;;;;;39.85;12.52;;;;;;;;;;5112963;27;20098;-69
2022/01/27 09:00:11;;;;;;;28.50;10.50;;;;;;;;;;5111923;27;20043;-68
2022/01/27 09:02:37;;;;;;;33.53;11.48;;;;;;;;;;5104404;28;20474;-66
2022/01/27 09:05:04;;;;;;;43.55;12.27;;;;;;;;;;5112370;28;20047;-70
2022/01/27 09:07:30;;;;;;;37.65;10.90;;;;;;;;;;5098083;28;20435;-66
2022/01/27 09:09:56;;;;;;;47.58;11.98;;;;;;;;;;5125892;27;20051;-66
2022/01/27 09:12:22;;;;;;;36.35;11.07;;;;;;;;;;5105894;27;20076;-66
2022/01/27 09:14:49;;;;;;;40.55;11.10;;;;;;;;;;5094389;28;20047;-66
2022/01/27 09:17:16;;;;;;;38.55;11.73;;;;;;;;;;5093248;28;20545;-66
2022/01/27 09:19:43;;;;;;;40.75;10.25;;;;;;;;;;5094341;27;20052;-66
2022/01/27 09:22:13;;;;;;;40.33;9.75;;;;;;;;;;5103864;27;20040;-66
2022/01/27 09:24:59;;;;;;;29.08;9.05;;;;;;;;;;5093657;27;20078;-68
2022/01/27 09:27:27;;;;;;;42.83;9.55;;;;;;;;;;5099585;27;20066;-66
2022/01/27 09:29:53;;;;;;;36.45;9.23;;;;;;;;;;5097053;27;20052;-72
2022/01/27 09:32:25;;;;;;;29.58;8.25;;;;;;;;;;5111963;28;20048;-69
2022/01/27 09:34:51;;;;;;;37.35;9.70;;;;;;;;;;5092909;28;20126;-68
2022/01/27 09:37:18;;;;;;;33.17;9.98;;;;;;;;;;5112941;28;20055;-68
2022/01/27 09:39:46;;;;;;;38.60;10.23;;;;;;;;;;5093705;28;20050;-69
2022/01/27 09:42:13;;;;;;;32.60;8.70;;;;;;;;;;5095926;27;20460;-70
2022/01/27 09:44:42;;;;;;;30.50;8.00;;;;;;;;;;5112659;28;20117;-69
2022/01/27 09:47:11;;;;;;;33.83;8.20;;;;;;;;;;5117633;27;20125;-70
2022/01/27 09:49:52;;;;;;;32.85;8.35;;;;;;;;;;5102789;27;20055;-68
2022/01/27 09:52:18;;;;;;;27.02;7.03;;;;;;;;;;5068507;28;20044;-73
2022/01/27 09:54:45;;;;;;;35.08;7.88;;;;;;;;;;5105966;28;20055;-66
2022/01/27 09:57:11;;;;;;;37.15;7.90;;;;;;;;;;5103745;28;20120;-66
2022/01/27 09:59:37;;;;;;;28.48;7.65;;;;;;;;;;5099435;28;20044;-66
2022/01/27 10:02:07;;;;;;;27.40;7.63;;;;;;;;;;5079475;28;20047;-66
2022/01/27 10:04:41;;;;;;;37.63;7.50;;;;;;;;;;5074407;28;20476;-67
2022/01/27 10:07:08;;;;;;;28.77;7.47;;;;;;;;;;5094018;28;20472;-67
2022/01/27 10:09:34;;;;;;;34.22;7.85;;;;;;;;;;5102222;28;20502;-69
2022/01/27 10:12:00;;;;;;;;;;;;;;;;;;5113732;28;20101;-65
2022/01/27 10:14:29;;;;;;;42.83;7.88;;;;;;;;;;5112080;28;20379;-67
2022/01/27 10:17:00;;;;;;;30.90;7.28;;;;;;;;;;5086263;27;20051;-67
2022/01/27 10:19:26;;;;;;;31.20;7.88;;;;;;;;;;5092750;27;20415;-65
2022/01/27 10:21:52;;;;;;;;;;;;;;;;;;5094505;27;20040;-67
2022/01/27 10:24:25;;;;;;;32.63;7.65;;;;;;;;;;5099105;27;19938;-66
2022/01/27 10:27:16;;;;;;;34.45;8.55;;;;;;;;;;5077319;28;20048;-67
2022/01/27 10:30:01;;;;;;;31.00;7.53;;;;;;;;;;5111987;27;20079;-67
2022/01/27 10:32:56;;;;;;;32.63;7.78;;;;;;;;;;5111888;27;20119;-68
2022/01/27 10:35:24;;;;;;;35.88;9.18;;;;;;;;;;5093586;28;20537;-67
2022/01/27 10:37:59;;;;;;;29.55;6.38;;;;;;;;;;5111574;27;20137;-67
2022/01/27 10:40:30;;;;;;;33.03;6.32;;;;;;;;;;5101045;27;20052;-71
2022/01/27 10:43:04;;;;;;;25.70;6.85;;;;;;;;;;5114729;27;20058;-68
2022/01/27 10:45:30;;;;;;;28.95;7.85;;;;;;;;;;5113986;27;20070;-68
2022/01/27 10:48:22;;;;;;;28.52;7.57;;;;;;;;;;5131181;27;20077;-73
2022/01/27 10:50:56;;;;;;;31.27;7.80;;;;;;;;;;5131235;27;20170;-70
2022/01/27 10:53:23;;;;;;;22.35;6.97;;;;;;;;;;5132542;27;20387;-70
2022/01/27 10:56:03;;;;;;;36.80;8.10;;;;;;;;;;5099309;27;20123;-70
2022/01/27 10:58:29;;;;;;;29.17;7.70;;;;;;;;;;5091362;28;20102;-77
2022/01/27 11:00:57;;;;;;;31.17;7.28;;;;;;;;;;5120211;27;20436;-70
2022/01/27 11:03:23;;;;;;;33.13;7.72;;;;;;;;;;5110354;27;20123;-79
2022/01/27 11:05:50;;;;;;;32.17;7.13;;;;;;;;;;5112528;27;20109;-68
2022/01/27 11:08:20;;;;;;;31.60;7.85;;;;;;;;;;5132528;27;20070;-71
2022/01/27 11:10:49;;;;;;;36.17;7.82;;;;;;;;;;5113330;27;20066;-68
2022/01/27 11:13:16;;;;;;;27.02;6.40;;;;;;;;;;5130813;27;20047;-68
2022/01/27 11:15:42;;;;;;;21.15;5.40;;;;;;;;;;5130677;27;20351;-72
2022/01/27 11:18:13;;;;;;;43.08;8.75;;;;;;;;;;5113770;27;20143;-70
2022/01/27 11:25:52;;;;;;;32.72;7.38;;;;;;;;;;5122695;27;20188;-67
2022/01/27 11:28:19;;;;;;;35.25;7.70;;;;;;;;;;5108794;28;20093;-66
2022/01/27 11:31:03;;;;;;;37.95;6.88;;;;;;;;;;5109094;28;20075;-68
2022/01/27 11:33:34;;;;;;;32.65;6.55;;;;;;;;;;5110306;28;20082;-69
2022/01/27 11:36:06;;;;;;;40.72;6.93;;;;;;;;;;5093268;28;20052;-74
2022/01/27 11:38:32;;;;;;;31.25;6.57;;;;;;;;;;5094043;28;20080;-72
2022/01/27 11:40:59;;;;;;;38.15;7.18;;;;;;;;;;5098066;28;20048;-71
2022/01/27 11:43:33;;;;;;;39.20;7.32;;;;;;;;;;5086228;28;20096;-69
2022/01/27 11:46:13;;;;;;;31.73;6.18;;;;;;;;;;5100963;28;20047;-70
2022/01/27 11:48:39;;;;;;;40.05;6.93;;;;;;;;;;5109833;28;20531;-75
2022/01/27 11:51:12;;;;;;;32.47;6.97;;;;;;;;;;5107693;28;20051;-75
2022/01/27 11:53:49;;;;;;;31.20;6.90;;;;;;;;;;5089759;28;20055;-72
2022/01/27 11:56:26;;;;;;;26.92;6.03;;;;;;;;;;5075706;28;20127;-66
2022/01/27 11:58:53;;;;;;;43.17;5.80;;;;;;;;;;5110402;28;20058;-74
2022/01/27 12:01:24;;;;;;;35.85;7.25;;;;;;;;;;5096211;28;20198;-67
2022/01/27 12:04:06;;;;;;;26.23;6.15;;;;;;;;;;5113410;28;20115;-67
2022/01/27 12:06:33;;;;;;;33.50;6.20;;;;;;;;;;5114225;28;20514;-68
2022/01/27 12:09:17;;;;;;;26.35;5.25;;;;;;;;;;5109634;28;20048;-71
2022/01/27 12:11:46;;;;;;;28.42;6.18;;;;;;;;;;5104101;28;20407;-68
2022/01/27 12:14:14;;;;;;;32.97;5.30;;;;;;;;;;5112287;28;20100;-73
2022/01/27 12:16:53;;;;;;;31.30;6.47;;;;;;;;;;5101781;28;20486;-71
2022/01/27 12:19:20;;;;;;;27.33;5.57;;;;;;;;;;5094331;28;20051;-68
2022/01/27 12:22:01;;;;;;;34.65;7.07;;;;;;;;;;5109482;28;20077;-75
2022/01/27 12:24:29;;;;;;;39.10;6.05;;;;;;;;;;5122164;28;20079;-70
2022/01/27 12:27:03;;;;;;;29.88;5.07;;;;;;;;;;5129111;28;20043;-71
2022/01/27 12:29:42;;;;;;;31.98;5.97;;;;;;;;;;5110104;28;20047;-71
2022/01/27 12:32:17;;;;;;;35.75;6.13;;;;;;;;;;5111083;28;20114;-68
2022/01/27 12:34:51;;;;;;;29.45;4.95;;;;;;;;;;5091761;28;20044;-70
2022/01/27 12:37:20;;;;;;;34.33;6.57;;;;;;;;;;5112707;28;20039;-69
2022/01/27 12:39:51;;;;;;;29.92;5.55;;;;;;;;;;5095095;28;20039;-71
2022/01/27 12:42:18;;;;;;;26.63;5.40;;;;;;;;;;5103942;28;20277;-72
2022/01/27 12:45:02;;;;;;;37.05;6.10;;;;;;;;;;5106052;28;20491;-70
2022/01/27 12:47:30;;;;;;;39.00;6.68;;;;;;;;;;5113068;28;20052;-73
2022/01/27 12:50:08;;;;;;;34.03;5.70;;;;;;;;;;5090791;28;20109;-68
2022/01/27 12:52:40;;;;;;;39.25;5.97;;;;;;;;;;5096295;28;20098;-73
2022/01/27 12:55:07;;;;;;;35.58;6.38;;;;;;;;;;5111961;27;20047;-67
2022/01/27 12:57:37;;;;;;;36.35;5.78;;;;;;;;;;5110389;28;20055;-70
2022/01/27 13:00:09;;;;;;;25.63;4.65;;;;;;;;;;5105893;28;20122;-68
2022/01/27 13:02:35;;;;;;;30.08;6.25;;;;;;;;;;5100689;27;20043;-74
2022/01/27 13:05:02;;;;;;;28.85;5.85;;;;;;;;;;5109354;27;20036;-68
2022/01/27 13:07:28;;;;;;;35.03;6.15;;;;;;;;;;5110821;27;20043;-69
2022/01/27 13:09:59;;;;;;;31.48;6.35;;;;;;;;;;5104145;27;20745;-73
2022/01/27 13:12:32;;;;;;;37.17;5.97;;;;;;;;;;5087440;27;20177;-70
2022/01/27 13:15:11;;;;;;;34.08;5.93;;;;;;;;;;5108559;27;20090;-68
2022/01/27 13:20:18;;;;;;;34.58;5.28;;;;;;;;;;5096212;27;20097;-71
2022/01/27 13:22:54;;;;;;;27.80;5.32;;;;;;;;;;5113661;27;20124;-70
2022/01/27 13:25:23;;;;;;;27.13;5.80;;;;;;;;;;5108019;28;20449;-70
2022/01/27 13:28:03;;;;;;;32.55;5.35;;;;;;;;;;5110199;27;20111;-70
2022/01/27 13:30:29;;;;;;;29.30;5.90;;;;;;;;;;5120407;27;20044;-68
2022/01/27 13:32:55;;;;;;;27.40;5.35;;;;;;;;;;5108702;27;20371;-72
2022/01/27 13:35:21;;;;;;;35.58;6.10;;;;;;;;;;5076490;28;20040;-67
2022/01/27 13:37:47;;;;;;;31.60;5.50;;;;;;;;;;5095366;27;20043;-68
2022/01/27 13:43:10;;;;;;;27.15;5.40;;;;;;;;;;5119371;27;20061;-72
2022/01/27 13:45:38;;;;;;;26.13;4.70;;;;;;;;;;5134063;27;20043;-71
2022/01/27 13:48:21;;;;;;;30.10;5.15;;;;;;;;;;5117969;27;20082;-68
2022/01/27 13:50:58;;;;;;;39.05;5.40;;;;;;;;;;5105059;28;20064;-74
2022/01/27 13:53:24;;;;;;;28.23;4.75;;;;;;;;;;5092752;28;20047;-70
2022/01/27 13:55:50;;;;;;;;;;;;;;;;;;5116443;27;20039;-70
2022/01/27 13:58:25;;;;;;;42.03;5.63;;;;;;;;;;5133380;27;20343;-68
2022/01/27 14:00:53;;;;;;;26.85;5.63;;;;;;;;;;5132664;27;20051;-71
2022/01/27 14:03:19;;;;;;;35.78;6.03;;;;;;;;;;5132966;27;20039;-72
2022/01/27 14:06:01;;;;;;;34.60;6.60;;;;;;;;;;5134106;27;20043;-69
2022/01/27 14:08:37;;;;;;;33.22;5.07;;;;;;;;;;5091027;28;20046;-68
2022/01/27 14:11:03;;;;;;;29.50;5.57;;;;;;;;;;5094818;28;20048;-71
2022/01/27 14:13:29;;;;;;;34.30;4.88;;;;;;;;;;5092348;28;20130;-72
2022/01/27 14:15:56;;;;;;;42.17;7.15;;;;;;;;;;5105201;27;20047;-72
2022/01/27 14:18:27;;;;;;;37.13;7.68;;;;;;;;;;5089876;27;20452;-70
2022/01/27 14:20:54;;;;;;;33.03;5.15;;;;;;;;;;5107379;27;20040;-69
2022/01/27 14:23:30;;;;;;;25.60;4.28;;;;;;;;;;5093901;28;20573;-66
2022/01/27 14:26:01;;;;;;;34.47;6.03;;;;;;;;;;5102863;27;20078;-68
2022/01/27 14:28:27;;;;;;;35.80;5.78;;;;;;;;;;5083328;28;20059;-68
2022/01/27 14:30:53;;;;;;;44.17;6.10;;;;;;;;;;5074271;28;20044;-73
2022/01/27 14:33:19;;;;;;;33.22;6.68;;;;;;;;;;5108222;28;20035;-69
2022/01/27 14:35:45;;;;;;;32.10;5.68;;;;;;;;;;5112227;28;20047;-68
2022/01/27 14:38:11;;;;;;;29.48;5.22;;;;;;;;;;5093888;28;20054;-71
2022/01/27 14:40:39;;;;;;;34.67;5.22;;;;;;;;;;5095623;28;20513;-70
2022/01/27 14:43:06;;;;;;;29.67;5.45;;;;;;;;;;5098247;28;20558;-73
2022/01/27 14:45:32;;;;;;;32.10;7.40;;;;;;;;;;5084934;28;20569;-68
2022/01/27 14:48:02;;;;;;;41.10;5.95;;;;;;;;;;5090848;28;20074;-69
2022/01/27 14:50:29;;;;;;;32.50;5.22;;;;;;;;;;5104796;28;20465;-70
2022/01/27 14:52:56;;;;;;;35.15;6.20;;;;;;;;;;5102592;28;20073;-72
2022/01/27 14:55:23;;;;;;;41.83;6.53;;;;;;;;;;5090435;27;20064;-70
2022/01/27 14:57:49;;;;;;;38.47;6.07;;;;;;;;;;5085768;28;20040;-72
2022/01/27 15:00:17;;;;;;;34.90;7.10;;;;;;;;;;5096823;27;20073;-65
2022/01/27 15:02:43;;;;;;;29.80;6.45;;;;;;;;;;5097473;27;20131;-70
2022/01/27 15:05:09;;;;;;;33.72;6.00;;;;;;;;;;5090389;28;20047;-67
2022/01/27 15:07:37;;;;;;;29.60;5.72;;;;;;;;;;5097880;27;20047;-73
2022/01/27 15:10:04;;;;;;;32.05;6.15;;;;;;;;;;5097125;27;20453;-74
2022/01/27 15:12:30;;;;;;;37.83;6.72;;;;;;;;;;5092053;28;20043;-71
2022/01/27 15:20:29;;;;;;;39.90;7.28;;;;;;;;;;5095434;28;20048;-68
2022/01/27 15:22:55;;;;;;;26.42;6.28;;;;;;;;;;5110277;28;20043;-67
2022/01/27 15:25:23;;;;;;;48.25;11.07;;;;;;;;;;5100195;28;20562;-67
2022/01/27 15:27:50;;;;;;;39.35;7.57;;;;;;;;;;5091546;28;20059;-69
2022/01/27 15:30:16;;;;;;;29.75;6.03;;;;;;;;;;5105643;28;20052;-68
2022/01/27 15:32:43;;;;;;;31.83;7.32;;;;;;;;;;5089986;28;20523;-67
2022/01/27 15:35:12;;;;;;;38.78;7.97;;;;;;;;;;5071777;28;20050;-69